Time;durP1;ratioP1;P1;durP2;ratioP2;P2;SDS_P1;SDS_P2;PMS_P1;PMS_P2;Temp;Humidity;BMP_temperature;BMP_pressure;BME280_temperature;BME280_humidity;BME280_pressure;Samples;Min_cycle;Max_cycle;Signal;HPM_P1;HPM_P2
2022/03/06 00:02:10;;;;;;;23.88;15.48;;;1.20;99.90;;;;;;5033490;28;20058;-58
2022/03/06 00:04:36;;;;;;;20.13;13.45;;;1.10;99.90;;;;;;5033817;28;20463;-58
2022/03/06 00:07:02;;;;;;;19.98;13.57;;;1.10;99.90;;;;;;5034093;28;20359;-57
2022/03/06 00:09:27;;;;;;;20.90;13.38;;;1.10;99.90;;;;;;5051831;28;20044;-57
2022/03/06 00:11:53;;;;;;;17.75;12.48;;;1.10;99.90;;;;;;5053587;28;20044;-59
2022/03/06 00:14:19;;;;;;;18.80;13.52;;;1.10;99.90;;;;;;5053895;28;20048;-59
2022/03/06 00:16:45;;;;;;;19.42;12.38;;;1.00;99.90;;;;;;5053787;28;20147;-57
2022/03/06 00:19:11;;;;;;;18.20;13.52;;;1.00;99.90;;;;;;5037790;28;20072;-58
2022/03/06 00:21:38;;;;;;;21.67;14.18;;;0.90;99.90;;;;;;5033549;28;20474;-57
2022/03/06 00:24:04;;;;;;;19.85;14.00;;;0.90;99.90;;;;;;5033782;28;20041;-57
2022/03/06 00:26:30;;;;;;;17.95;13.30;;;0.90;99.90;;;;;;5033970;28;20053;-59
2022/03/06 00:28:56;;;;;;;20.95;13.07;;;0.90;99.90;;;;;;5046838;28;20049;-57
2022/03/06 00:31:24;;;;;;;19.90;13.23;;;0.90;99.90;;;;;;5053230;28;20053;-58
2022/03/06 00:33:51;;;;;;;20.15;13.60;;;0.90;99.90;;;;;;5053651;28;20041;-58
2022/03/06 00:36:17;;;;;;;20.02;12.70;;;0.80;99.90;;;;;;5036323;28;20052;-58
2022/03/06 00:38:42;;;;;;;18.65;14.32;;;0.90;99.90;;;;;;5041809;28;20038;-59
2022/03/06 00:41:09;;;;;;;19.25;13.38;;;0.90;99.90;;;;;;5033304;28;20370;-58
2022/03/06 00:43:35;;;;;;;19.52;14.70;;;0.90;99.90;;;;;;5034024;28;20051;-58
2022/03/06 00:46:01;;;;;;;19.88;13.77;;;0.90;99.90;;;;;;5037446;28;20124;-59
2022/03/06 00:48:26;;;;;;;20.55;14.18;;;0.80;99.90;;;;;;5046724;28;20044;-59
2022/03/06 00:50:52;;;;;;;19.40;14.80;;;0.80;99.90;;;;;;5056750;28;20069;-59
2022/03/06 00:53:18;;;;;;;18.30;14.13;;;0.70;99.90;;;;;;5057453;28;20449;-58
2022/03/06 00:55:43;;;;;;;22.00;14.52;;;0.80;99.90;;;;;;5057328;28;20110;-59
2022/03/06 00:58:09;;;;;;;17.70;13.25;;;0.70;99.90;;;;;;5050180;28;20047;-59
2022/03/06 01:00:40;;;;;;;17.33;13.70;;;0.70;99.90;;;;;;5036954;28;20048;-58
2022/03/06 01:03:10;;;;;;;19.80;14.93;;;0.70;99.90;;;;;;5037093;28;20038;-59
2022/03/06 01:05:35;;;;;;;19.00;14.02;;;0.70;99.90;;;;;;5036678;28;20470;-59
2022/03/06 01:08:03;;;;;;;18.10;14.20;;;0.70;99.90;;;;;;5042518;28;20059;-58
2022/03/06 01:10:30;;;;;;;18.77;14.68;;;0.60;99.90;;;;;;5057009;28;20044;-58
2022/03/06 01:12:56;;;;;;;19.90;14.70;;;0.60;99.90;;;;;;5056709;28;20473;-58
2022/03/06 01:15:22;;;;;;;16.70;12.95;;;0.60;99.90;;;;;;5056896;28;20047;-59
2022/03/06 01:17:47;;;;;;;19.33;14.68;;;0.60;99.90;;;;;;5052906;28;20047;-58
2022/03/06 01:20:13;;;;;;;18.48;14.23;;;0.60;99.90;;;;;;5036758;28;20038;-58
2022/03/06 01:22:39;;;;;;;17.27;13.35;;;0.60;99.90;;;;;;5036802;28;20095;-59
2022/03/06 01:25:05;;;;;;;20.23;14.15;;;0.60;99.90;;;;;;5036755;28;20037;-59
2022/03/06 01:27:31;;;;;;;18.48;14.27;;;0.60;99.90;;;;;;5037886;28;20120;-59
2022/03/06 01:29:57;;;;;;;18.42;14.77;;;0.60;99.90;;;;;;5056751;28;20069;-58
2022/03/06 01:32:23;;;;;;;18.25;13.93;;;0.60;99.90;;;;;;5055931;28;20072;-58
2022/03/06 01:34:49;;;;;;;18.35;14.05;;;0.60;99.90;;;;;;5056377;28;20043;-58
2022/03/06 01:37:14;;;;;;;21.08;14.77;;;0.70;99.90;;;;;;5056523;28;20112;-58
2022/03/06 01:39:40;;;;;;;20.38;15.27;;;0.60;99.90;;;;;;5019785;28;20458;-60
2022/03/06 01:42:06;;;;;;;21.65;15.40;;;0.60;99.90;;;;;;5036257;28;20046;-59
2022/03/06 01:44:31;;;;;;;18.73;14.98;;;0.70;99.90;;;;;;5036140;28;20072;-59
2022/03/06 01:46:57;;;;;;;17.83;13.60;;;0.70;99.90;;;;;;5036285;28;20087;-58
2022/03/06 01:49:23;;;;;;;18.42;13.95;;;0.70;99.90;;;;;;5052360;28;20450;-60
2022/03/06 01:51:48;;;;;;;16.80;13.43;;;0.80;99.90;;;;;;5055671;28;20121;-59
2022/03/06 01:54:14;;;;;;;17.35;14.13;;;0.70;99.90;;;;;;5038472;28;20056;-59
2022/03/06 01:56:41;;;;;;;18.25;13.52;;;0.70;99.90;;;;;;5056043;28;20446;-59
2022/03/06 01:59:07;;;;;;;18.08;14.70;;;0.70;99.90;;;;;;5041738;28;20041;-59
2022/03/06 02:01:33;;;;;;;19.33;15.02;;;0.70;99.90;;;;;;5035744;28;20050;-58
2022/03/06 02:03:59;;;;;;;19.55;14.40;;;0.70;99.90;;;;;;5036185;28;20418;-58
2022/03/06 02:06:26;;;;;;;17.85;14.52;;;0.70;99.90;;;;;;5018396;28;20087;-58
2022/03/06 02:08:52;;;;;;;17.63;13.90;;;0.70;99.90;;;;;;5047746;28;20041;-59
2022/03/06 02:11:20;;;;;;;19.85;15.60;;;0.70;99.90;;;;;;5055508;28;20068;-58
2022/03/06 02:13:45;;;;;;;22.65;15.90;;;0.70;99.90;;;;;;5055557;28;20324;-58
2022/03/06 02:16:11;;;;;;;17.48;13.57;;;0.70;99.90;;;;;;5038006;28;20044;-60
2022/03/06 02:18:37;;;;;;;19.75;15.07;;;0.70;99.90;;;;;;5045652;28;20041;-58
2022/03/06 02:21:08;;;;;;;20.60;15.55;;;0.70;99.90;;;;;;5035439;28;20458;-59
2022/03/06 02:23:33;;;;;;;19.02;14.90;;;0.70;99.90;;;;;;5035679;28;20214;-60
2022/03/06 02:25:59;;;;;;;17.95;13.80;;;0.70;99.90;;;;;;5035788;28;20052;-59
2022/03/06 02:28:24;;;;;;;20.40;15.48;;;0.70;99.90;;;;;;5043633;28;20064;-59
2022/03/06 02:30:50;;;;;;;18.20;14.30;;;0.60;99.90;;;;;;5037328;28;20049;-59
2022/03/06 02:33:16;;;;;;;18.67;14.38;;;0.50;99.90;;;;;;5055565;28;20048;-60
2022/03/06 02:35:42;;;;;;;18.67;13.48;;;0.60;99.90;;;;;;5055431;28;20068;-59
2022/03/06 02:38:08;;;;;;;17.50;13.70;;;0.60;99.90;;;;;;5049377;28;20048;-58
2022/03/06 02:40:39;;;;;;;20.38;14.52;;;0.60;99.90;;;;;;5017604;28;20049;-59
2022/03/06 02:43:06;;;;;;;27.42;21.23;;;0.50;99.90;;;;;;5035343;28;20045;-59
2022/03/06 02:45:33;;;;;;;17.85;14.27;;;0.50;99.90;;;;;;5017894;28;20132;-59
2022/03/06 02:47:59;;;;;;;16.25;13.55;;;0.70;99.90;;;;;;5039272;28;20047;-58
2022/03/06 02:50:29;;;;;;;18.85;14.23;;;0.60;99.90;;;;;;5054792;28;20041;-59
2022/03/06 02:52:56;;;;;;;18.33;13.80;;;0.60;99.90;;;;;;5055070;28;20120;-59
2022/03/06 02:55:22;;;;;;;15.32;12.35;;;0.60;99.90;;;;;;5055125;28;20048;-59
2022/03/06 02:57:48;;;;;;;18.58;14.60;;;0.70;99.90;;;;;;5051581;28;20131;-58
2022/03/06 03:00:18;;;;;;;19.25;14.13;;;0.70;99.90;;;;;;5034802;28;20120;-58
2022/03/06 03:02:44;;;;;;;16.77;12.63;;;0.70;99.90;;;;;;5034830;28;20073;-58
2022/03/06 03:05:11;;;;;;;18.77;13.00;;;0.60;99.90;;;;;;5034629;28;20089;-58
2022/03/06 03:07:41;;;;;;;17.60;12.75;;;0.60;99.90;;;;;;5035404;28;20038;-58
2022/03/06 03:10:08;;;;;;;18.38;14.38;;;0.60;99.90;;;;;;5054736;28;20136;-59
2022/03/06 03:12:34;;;;;;;18.35;14.25;;;0.60;99.90;;;;;;5054917;28;20051;-58
2022/03/06 03:15:00;;;;;;;18.52;14.75;;;0.50;99.90;;;;;;5054734;28;20041;-59
2022/03/06 03:17:25;;;;;;;18.42;14.15;;;0.50;99.90;;;;;;5054011;28;20036;-58
2022/03/06 03:19:51;;;;;;;19.52;14.23;;;0.50;99.90;;;;;;5017559;28;20180;-59
2022/03/06 03:22:16;;;;;;;18.02;14.00;;;0.50;99.90;;;;;;5034427;28;20060;-59
2022/03/06 03:24:42;;;;;;;17.58;13.40;;;0.50;99.90;;;;;;5017263;28;20049;-60
2022/03/06 03:27:08;;;;;;;19.08;14.52;;;0.50;99.90;;;;;;5034540;28;20458;-59
2022/03/06 03:29:33;;;;;;;20.13;14.02;;;0.40;99.90;;;;;;5051443;28;20041;-58
2022/03/06 03:31:59;;;;;;;18.85;14.75;;;0.40;99.90;;;;;;5054128;28;20032;-59
2022/03/06 03:34:25;;;;;;;18.45;13.13;;;0.30;99.90;;;;;;5054330;28;20416;-59
2022/03/06 03:36:50;;;;;;;19.02;14.18;;;0.40;99.90;;;;;;5054363;28;20052;-58
2022/03/06 03:39:16;;;;;;;21.85;13.63;;;0.40;99.90;;;;;;5039505;28;20041;-58
2022/03/06 03:41:41;;;;;;;17.50;13.95;;;0.40;99.90;;;;;;5034146;28;20047;-58
2022/03/06 03:44:07;;;;;;;17.10;13.77;;;0.40;99.90;;;;;;5034183;28;20045;-58
2022/03/06 03:46:32;;;;;;;20.95;13.32;;;0.40;99.90;;;;;;5033850;28;20116;-59
2022/03/06 03:48:58;;;;;;;19.40;13.20;;;0.40;99.90;;;;;;5046002;28;20116;-58
2022/03/06 03:51:24;;;;;;;15.75;12.48;;;0.40;99.90;;;;;;5053700;28;20052;-58
2022/03/06 03:53:49;;;;;;;15.15;12.20;;;0.40;99.90;;;;;;5054094;28;20048;-58
2022/03/06 03:56:15;;;;;;;17.70;13.15;;;0.50;99.90;;;;;;5053845;28;20059;-59
2022/03/06 03:58:40;;;;;;;17.70;12.60;;;0.40;99.90;;;;;;5044197;28;20041;-59
2022/03/06 04:01:06;;;;;;;18.33;12.75;;;0.40;99.90;;;;;;5033675;28;20053;-59
2022/03/06 04:03:32;;;;;;;19.77;12.63;;;0.40;99.90;;;;;;5033961;28;20092;-59
2022/03/06 04:05:58;;;;;;;16.55;12.48;;;0.40;99.90;;;;;;5033719;28;20057;-59
2022/03/06 04:08:23;;;;;;;15.00;12.20;;;0.40;99.90;;;;;;5041005;28;20025;-59
2022/03/06 04:10:49;;;;;;;16.50;12.20;;;0.40;99.90;;;;;;5053492;28;20134;-59
2022/03/06 04:13:15;;;;;;;16.60;12.23;;;0.40;99.90;;;;;;5053633;28;20104;-59
2022/03/06 04:15:41;;;;;;;15.30;12.30;;;0.30;99.90;;;;;;5053604;28;20041;-59
2022/03/06 04:18:06;;;;;;;18.63;12.00;;;0.20;99.90;;;;;;5048767;28;20104;-60
2022/03/06 04:20:32;;;;;;;15.32;11.48;;;0.20;99.90;;;;;;5037351;28;20048;-58
2022/03/06 04:22:58;;;;;;;16.75;11.50;;;0.20;99.90;;;;;;5038153;28;20064;-59
2022/03/06 04:25:24;;;;;;;15.90;11.77;;;0.20;99.90;;;;;;5037978;28;20041;-59
2022/03/06 04:27:50;;;;;;;17.40;11.35;;;0.10;99.90;;;;;;5022697;28;20028;-60
2022/03/06 04:30:16;;;;;;;17.70;12.27;;;0.10;99.90;;;;;;5057443;28;20043;-58
2022/03/06 04:32:41;;;;;;;15.50;11.75;;;0.20;99.90;;;;;;5039920;28;20120;-59
2022/03/06 04:35:08;;;;;;;15.20;11.60;;;0.20;99.90;;;;;;5039971;28;20144;-58
2022/03/06 04:37:33;;;;;;;15.98;11.93;;;0.20;99.90;;;;;;5039614;28;20045;-60
2022/03/06 04:39:59;;;;;;;16.80;11.80;;;0.10;99.90;;;;;;5037578;28;20037;-58
2022/03/06 04:42:25;;;;;;;16.02;12.38;;;0.10;99.90;;;;;;5020012;28;20433;-58
2022/03/06 04:44:51;;;;;;;18.10;12.38;;;0.10;99.90;;;;;;5037621;28;20049;-59
2022/03/06 04:47:16;;;;;;;17.80;12.27;;;0.10;99.90;;;;;;5037373;28;20041;-59
2022/03/06 04:49:42;;;;;;;16.90;12.23;;;0.00;99.90;;;;;;5054996;28;20040;-59
2022/03/06 04:52:08;;;;;;;17.95;12.82;;;0.10;99.90;;;;;;5057012;28;20040;-59
2022/03/06 04:54:33;;;;;;;16.65;11.05;;;0.00;99.90;;;;;;5057385;28;20045;-60
2022/03/06 04:57:00;;;;;;;15.18;11.02;;;0.00;99.90;;;;;;5057415;28;20103;-59
2022/03/06 04:59:27;;;;;;;17.33;11.02;;;0.20;99.90;;;;;;5024095;28;20534;-59
2022/03/06 05:01:53;;;;;;;16.70;11.98;;;0.10;99.90;;;;;;5036892;28;20057;-58
2022/03/06 05:04:19;;;;;;;17.02;12.35;;;0.10;99.90;;;;;;5037320;28;20041;-59
2022/03/06 05:06:44;;;;;;;16.27;11.55;;;0.10;99.90;;;;;;5036756;28;20436;-59
2022/03/06 05:09:10;;;;;;;15.38;11.43;;;0.10;99.90;;;;;;5050130;28;20040;-60
2022/03/06 05:11:36;;;;;;;14.95;11.07;;;0.10;99.90;;;;;;5056412;28;20052;-58
2022/03/06 05:14:02;;;;;;;13.93;10.27;;;0.10;99.90;;;;;;5056981;28;20041;-58
2022/03/06 05:16:28;;;;;;;13.90;9.95;;;0.10;99.90;;;;;;5056734;28;20048;-59
2022/03/06 05:18:54;;;;;;;16.73;10.82;;;0.20;99.90;;;;;;5045658;28;20053;-60
2022/03/06 05:21:20;;;;;;;13.35;10.02;;;0.20;99.90;;;;;;5036405;28;20120;-59
2022/03/06 05:23:46;;;;;;;13.52;9.35;;;0.10;99.90;;;;;;5036853;28;20117;-59
2022/03/06 05:26:11;;;;;;;16.63;9.85;;;0.10;99.90;;;;;;5036891;28;20029;-58
2022/03/06 05:28:37;;;;;;;14.85;9.95;;;0.10;99.90;;;;;;5027452;28;20457;-58
2022/03/06 05:31:03;;;;;;;14.57;10.20;;;0.10;99.90;;;;;;5055687;28;20044;-58
2022/03/06 05:33:28;;;;;;;16.77;10.43;;;0.10;99.90;;;;;;5039437;28;20048;-58
2022/03/06 05:35:54;;;;;;;14.85;9.80;;;0.10;99.90;;;;;;5056564;28;20033;-60
2022/03/06 05:38:20;;;;;;;11.75;9.18;;;0.10;99.90;;;;;;5050403;28;20518;-60
2022/03/06 05:40:45;;;;;;;13.55;9.05;;;0.10;99.90;;;;;;5036302;28;20125;-59
2022/03/06 05:43:11;;;;;;;13.02;8.75;;;0.10;99.90;;;;;;5019216;28;20132;-59
2022/03/06 05:45:37;;;;;;;15.23;9.57;;;0.00;99.90;;;;;;5036422;28;20038;-58
2022/03/06 05:48:02;;;;;;;11.32;8.05;;;0.10;99.90;;;;;;5021990;28;20033;-58
2022/03/06 05:50:28;;;;;;;10.63;7.53;;;0.20;99.90;;;;;;5056119;28;20036;-58
2022/03/06 05:52:54;;;;;;;12.25;8.40;;;0.10;99.90;;;;;;5056272;28;20044;-59
2022/03/06 05:55:20;;;;;;;12.10;7.72;;;0.10;99.90;;;;;;5056300;28;20037;-59
2022/03/06 05:57:45;;;;;;;16.33;8.30;;;0.20;99.90;;;;;;5037531;28;20077;-59
2022/03/06 06:00:12;;;;;;;10.68;7.22;;;0.10;99.90;;;;;;5018515;28;20430;-58
2022/03/06 06:02:38;;;;;;;12.20;7.90;;;0.30;99.90;;;;;;5002271;28;20202;-59
2022/03/06 06:05:06;;;;;;;11.25;7.28;;;0.30;99.90;;;;;;5035798;28;20049;-58
2022/03/06 06:07:32;;;;;;;11.07;7.75;;;0.30;99.90;;;;;;5036133;28;20048;-58
2022/03/06 06:09:58;;;;;;;12.60;7.72;;;0.20;99.90;;;;;;5054685;28;20045;-59
2022/03/06 06:12:24;;;;;;;12.73;7.60;;;0.20;99.90;;;;;;5055701;28;20645;-59
2022/03/06 06:14:50;;;;;;;12.93;7.70;;;0.10;99.90;;;;;;5055626;28;20045;-59
2022/03/06 06:17:16;;;;;;;11.88;7.05;;;0.10;99.90;;;;;;5055737;28;20055;-59
2022/03/06 06:19:41;;;;;;;11.65;6.70;;;0.30;99.90;;;;;;5038538;28;20033;-59
2022/03/06 06:22:07;;;;;;;13.63;6.85;;;0.30;99.90;;;;;;5018394;28;20041;-59
2022/03/06 06:24:33;;;;;;;12.32;6.60;;;0.30;99.90;;;;;;5035432;28;20038;-58
2022/03/06 06:26:59;;;;;;;10.85;7.00;;;0.40;99.90;;;;;;5035828;28;20029;-58
2022/03/06 06:29:25;;;;;;;11.75;6.97;;;0.30;99.90;;;;;;5049886;28;20033;-58
2022/03/06 06:31:51;;;;;;;12.07;6.32;;;0.30;99.90;;;;;;5055209;28;20458;-59
2022/03/06 06:34:17;;;;;;;9.60;6.38;;;0.40;99.90;;;;;;5055560;28;20103;-58
2022/03/06 06:36:43;;;;;;;9.80;6.28;;;0.40;99.90;;;;;;5055478;28;20041;-59
2022/03/06 06:39:09;;;;;;;11.90;6.68;;;0.50;99.90;;;;;;5042764;28;20485;-59
2022/03/06 06:41:38;;;;;;;12.73;6.80;;;0.50;99.90;;;;;;5016927;28;20413;-59
2022/03/06 06:44:04;;;;;;;12.35;6.68;;;0.50;99.90;;;;;;5017937;28;20053;-58
2022/03/06 06:46:29;;;;;;;10.10;5.90;;;0.50;99.90;;;;;;5035304;28;20052;-59
2022/03/06 06:48:55;;;;;;;10.63;5.75;;;0.50;99.90;;;;;;5045596;28;20033;-58
2022/03/06 06:51:21;;;;;;;11.10;5.70;;;0.60;99.90;;;;;;5037371;28;20063;-59
2022/03/06 06:53:46;;;;;;;9.07;6.00;;;0.60;99.90;;;;;;5055238;28;20126;-59
2022/03/06 06:56:12;;;;;;;9.35;5.35;;;0.70;99.90;;;;;;5055054;28;20041;-58
2022/03/06 06:58:39;;;;;;;9.68;6.10;;;0.70;99.90;;;;;;5035372;28;20034;-59
2022/03/06 07:01:04;;;;;;;9.80;5.75;;;0.70;99.90;;;;;;4997050;28;20044;-59
2022/03/06 07:03:30;;;;;;;9.15;5.90;;;0.70;99.90;;;;;;5014792;28;20037;-58
2022/03/06 07:05:57;;;;;;;7.63;5.25;;;0.80;99.90;;;;;;5014155;28;20072;-59
2022/03/06 07:08:23;;;;;;;10.73;5.35;;;0.80;99.90;;;;;;5016620;28;20088;-59
2022/03/06 07:10:48;;;;;;;8.80;5.50;;;0.90;99.90;;;;;;4996491;28;20474;-59
2022/03/06 07:13:14;;;;;;;9.60;5.45;;;0.80;99.90;;;;;;4996968;28;20324;-58
2022/03/06 07:15:39;;;;;;;9.85;5.07;;;0.90;99.90;;;;;;5013996;28;20121;-59
2022/03/06 07:18:05;;;;;;;8.88;5.32;;;0.90;99.90;;;;;;5018367;28;20045;-58
2022/03/06 07:20:31;;;;;;;9.25;5.80;;;0.90;99.90;;;;;;5034198;28;20060;-58
2022/03/06 07:22:57;;;;;;;10.57;5.40;;;1.00;99.90;;;;;;5034433;28;20038;-58
2022/03/06 07:25:23;;;;;;;8.75;5.22;;;1.10;99.90;;;;;;5033664;28;20360;-60
2022/03/06 07:27:49;;;;;;;12.02;5.82;;;1.10;99.90;;;;;;5034064;28;20117;-60
2022/03/06 07:30:14;;;;;;;8.18;4.97;;;1.10;99.90;;;;;;5033313;28;20059;-58
2022/03/06 07:32:46;;;;;;;8.10;5.25;;;1.20;99.90;;;;;;5033384;28;20124;-59
2022/03/06 07:35:12;;;;;;;10.93;5.15;;;1.20;99.90;;;;;;5033584;28;20047;-58
2022/03/06 07:37:38;;;;;;;11.68;5.50;;;1.30;99.90;;;;;;5033205;28;20348;-58
2022/03/06 07:40:04;;;;;;;9.93;4.75;;;1.30;99.90;;;;;;5025906;28;20029;-58
2022/03/06 07:42:30;;;;;;;7.82;5.10;;;1.40;99.90;;;;;;5028045;28;20033;-59
2022/03/06 07:44:57;;;;;;;8.18;5.28;;;1.30;99.90;;;;;;5034485;28;20038;-58
2022/03/06 07:47:22;;;;;;;10.10;5.20;;;1.30;99.90;;;;;;5033750;28;20378;-59
2022/03/06 07:49:48;;;;;;;7.50;4.95;;;1.40;99.90;;;;;;5032933;28;20045;-58
2022/03/06 07:52:13;;;;;;;7.97;4.57;;;1.40;99.90;;;;;;5033566;28;20041;-58
2022/03/06 07:54:39;;;;;;;8.48;4.60;;;1.50;99.90;;;;;;5033739;28;20048;-59
2022/03/06 07:57:06;;;;;;;9.02;4.93;;;1.60;99.90;;;;;;5016294;28;20049;-59
2022/03/06 07:59:31;;;;;;;9.15;4.90;;;1.70;99.90;;;;;;5023896;28;20038;-56
2022/03/06 08:01:57;;;;;;;8.40;4.63;;;1.90;99.90;;;;;;5023579;28;20033;-59
2022/03/06 08:04:23;;;;;;;8.13;4.63;;;1.90;99.90;;;;;;5033508;28;20467;-59
2022/03/06 08:06:49;;;;;;;6.55;4.28;;;2.00;99.90;;;;;;5032950;28;20037;-57
2022/03/06 08:09:15;;;;;;;8.02;3.90;;;2.00;99.90;;;;;;5035646;28;20068;-57
2022/03/06 08:11:41;;;;;;;8.15;4.10;;;2.00;99.90;;;;;;5032791;28;20378;-58
2022/03/06 08:14:06;;;;;;;6.82;4.43;;;2.00;99.90;;;;;;5015767;28;20061;-57
2022/03/06 08:16:32;;;;;;;6.78;4.28;;;2.00;99.90;;;;;;5033882;28;20044;-57
2022/03/06 08:18:58;;;;;;;10.10;4.28;;;2.20;99.90;;;;;;5043258;28;20045;-57
2022/03/06 08:21:24;;;;;;;7.75;3.70;;;2.30;99.90;;;;;;5053542;28;20128;-57
2022/03/06 08:23:51;;;;;;;9.38;4.72;;;2.40;99.90;;;;;;5035952;28;20045;-57
2022/03/06 08:26:16;;;;;;;7.50;4.40;;;2.40;99.90;;;;;;5053524;28;20037;-57
2022/03/06 08:28:42;;;;;;;7.88;3.85;;;2.40;99.90;;;;;;5042913;28;20043;-58
2022/03/06 08:31:09;;;;;;;6.45;3.67;;;2.60;99.90;;;;;;5034678;28;20107;-57
2022/03/06 08:33:34;;;;;;;5.82;3.63;;;2.60;99.90;;;;;;5033811;28;20080;-57
2022/03/06 08:36:00;;;;;;;6.15;3.78;;;2.70;99.90;;;;;;5033887;28;20077;-57
2022/03/06 08:38:25;;;;;;;7.88;3.90;;;2.80;99.90;;;;;;5021554;28;20041;-58
2022/03/06 08:40:51;;;;;;;6.82;3.70;;;2.90;99.90;;;;;;5053288;28;20464;-58
2022/03/06 08:43:17;;;;;;;9.27;3.55;;;2.90;99.90;;;;;;5053630;28;20041;-57
2022/03/06 08:45:42;;;;;;;10.45;3.75;;;3.00;99.90;;;;;;5053564;28;20515;-57
2022/03/06 08:48:08;;;;;;;8.68;3.40;;;3.30;99.90;;;;;;5050458;28;20508;-57
2022/03/06 08:50:34;;;;;;;6.30;3.20;;;3.20;99.90;;;;;;5033161;28;20040;-57
2022/03/06 08:52:59;;;;;;;5.45;3.13;;;3.20;99.90;;;;;;5033844;28;20116;-58
2022/03/06 08:55:25;;;;;;;6.40;2.70;;;3.30;99.90;;;;;;5033742;28;20474;-59
2022/03/06 08:57:51;;;;;;;4.25;2.80;;;3.40;99.90;;;;;;5033705;28;20045;-59
2022/03/06 09:00:17;;;;;;;7.25;2.92;;;3.40;99.90;;;;;;5013241;28;20192;-58
2022/03/06 09:02:42;;;;;;;5.38;3.00;;;3.50;99.90;;;;;;5013616;28;20046;-60
2022/03/06 09:05:08;;;;;;;7.85;2.83;;;3.60;99.90;;;;;;5024155;28;20049;-59
2022/03/06 09:07:34;;;;;;;4.20;2.53;;;3.60;99.90;;;;;;5037191;28;20172;-58
2022/03/06 09:09:59;;;;;;;6.10;2.58;;;3.90;99.90;;;;;;5054618;28;20056;-58
2022/03/06 09:12:26;;;;;;;3.63;2.47;;;3.90;99.90;;;;;;5057147;28;20473;-59
2022/03/06 09:14:55;;;;;;;5.70;2.65;;;4.00;99.90;;;;;;5035996;28;20045;-59
2022/03/06 09:17:21;;;;;;;4.10;2.20;;;4.00;99.90;;;;;;4998932;28;20042;-60
2022/03/06 09:19:47;;;;;;;3.13;2.20;;;4.10;99.90;;;;;;5016716;28;20042;-59
2022/03/06 09:22:12;;;;;;;4.80;3.08;;;4.10;99.90;;;;;;5016487;28;20056;-58
2022/03/06 09:24:39;;;;;;;4.57;2.83;;;4.20;99.90;;;;;;5015583;28;20044;-61
2022/03/06 09:27:05;;;;;;;7.35;2.90;;;4.20;99.90;;;;;;4998358;28;20096;-59
2022/03/06 09:29:31;;;;;;;5.85;3.22;;;4.30;99.90;;;;;;4986654;28;20034;-59
2022/03/06 09:31:56;;;;;;;6.45;3.00;;;4.30;99.90;;;;;;5016176;28;20455;-59
2022/03/06 09:34:23;;;;;;;5.68;2.78;;;4.50;99.90;;;;;;5015554;28;20042;-61
2022/03/06 09:36:49;;;;;;;4.45;2.50;;;4.70;99.90;;;;;;5015974;28;20046;-59
2022/03/06 09:39:17;;;;;;;6.38;2.85;;;4.70;99.90;;;;;;5036943;28;20044;-60
2022/03/06 09:41:43;;;;;;;8.20;2.70;;;4.60;99.90;;;;;;5035985;28;20049;-61
2022/03/06 09:44:12;;;;;;;8.77;2.90;;;4.60;99.90;;;;;;5036525;28;20042;-59
2022/03/06 09:46:39;;;;;;;5.40;2.67;;;4.70;99.90;;;;;;5019175;28;20045;-59
2022/03/06 09:49:06;;;;;;;6.50;3.05;;;4.80;99.90;;;;;;5028736;28;20041;-59
2022/03/06 09:51:40;;;;;;;4.50;2.53;;;4.80;99.90;;;;;;5038523;28;20052;-59
2022/03/06 09:54:07;;;;;;;5.82;3.35;;;4.80;99.90;;;;;;5022606;28;20056;-58
2022/03/06 09:56:36;;;;;;;4.32;2.70;;;4.80;99.90;;;;;;5015036;28;20034;-59
2022/03/06 09:59:02;;;;;;;5.72;3.10;;;4.90;99.90;;;;;;5035776;28;20071;-59
2022/03/06 10:01:29;;;;;;;4.63;2.80;;;5.00;99.90;;;;;;5041152;28;20045;-59
2022/03/06 10:03:55;;;;;;;4.78;3.13;;;5.10;99.90;;;;;;5018306;28;20046;-59
2022/03/06 10:06:23;;;;;;;4.88;2.85;;;5.20;99.90;;;;;;5019588;28;20053;-59
2022/03/06 10:09:04;;;;;;;7.03;2.90;;;5.30;99.90;;;;;;5031642;28;20049;-59
2022/03/06 10:11:30;;;;;;;6.47;3.40;;;5.40;99.90;;;;;;5032689;28;20026;-59
2022/03/06 10:13:56;;;;;;;7.05;2.83;;;5.50;99.90;;;;;;5035684;28;20044;-59
2022/03/06 10:16:22;;;;;;;5.85;3.00;;;5.50;99.90;;;;;;5035496;28;20045;-59
2022/03/06 10:18:54;;;;;;;4.07;2.70;;;5.60;99.90;;;;;;5035650;28;20094;-59
2022/03/06 10:21:27;;;;;;;5.05;2.95;;;5.60;99.90;;;;;;5034790;28;20057;-60
2022/03/06 10:24:08;;;;;;;4.80;2.75;;;5.70;99.90;;;;;;5034902;28;20485;-59
2022/03/06 10:26:36;;;;;;;6.40;3.13;;;5.60;99.90;;;;;;5018955;28;20044;-61
2022/03/06 10:29:02;;;;;;;4.53;2.90;;;5.60;99.90;;;;;;5044895;28;20423;-60
2022/03/06 10:31:30;;;;;;;6.05;2.60;;;5.40;99.90;;;;;;5054694;28;20068;-60
2022/03/06 10:33:59;;;;;;;5.10;2.33;;;5.60;99.90;;;;;;5055293;28;20369;-59
2022/03/06 10:36:34;;;;;;;5.47;2.60;;;5.70;99.90;;;;;;5055447;28;20049;-60
2022/03/06 10:39:00;;;;;;;5.55;2.50;;;5.60;99.90;;;;;;5045951;28;20107;-60
2022/03/06 10:41:35;;;;;;;5.90;2.35;;;5.50;99.90;;;;;;5017637;28;20061;-60
2022/03/06 10:44:01;;;;;;;4.13;2.28;;;5.60;99.90;;;;;;5035530;28;20072;-59
2022/03/06 10:46:26;;;;;;;5.07;2.45;;;5.70;99.90;;;;;;5035371;28;20470;-61
2022/03/06 10:49:02;;;;;;;5.25;2.50;;;5.80;99.90;;;;;;5043042;28;20458;-59
2022/03/06 10:51:29;;;;;;;4.03;2.22;;;5.80;99.90;;;;;;5054594;28;20450;-60
2022/03/06 10:53:58;;;;;;;5.78;2.20;;;5.90;99.90;;;;;;5055177;28;20124;-60
2022/03/06 10:56:25;;;;;;;4.00;2.25;;;5.80;99.90;;;;;;5055071;28;20044;-60
2022/03/06 10:58:51;;;;;;;4.60;1.90;;;5.90;99.70;;;;;;5047174;28;20041;-59
2022/03/06 11:01:17;;;;;;;3.92;2.22;;;5.80;99.80;;;;;;5034323;28;20457;-59
2022/03/06 11:03:43;;;;;;;5.00;2.35;;;5.80;99.70;;;;;;5034954;28;20056;-59
2022/03/06 11:06:11;;;;;;;5.10;2.20;;;6.00;99.00;;;;;;5016888;28;20061;-60
2022/03/06 11:08:38;;;;;;;4.65;2.17;;;6.00;99.20;;;;;;5040215;28;20041;-60
2022/03/06 11:11:06;;;;;;;4.93;2.17;;;6.00;99.00;;;;;;5054470;28;20072;-60
2022/03/06 11:13:31;;;;;;;6.05;2.38;;;6.10;99.10;;;;;;5054828;28;20095;-60
2022/03/06 11:15:58;;;;;;;5.50;2.50;;;6.10;99.10;;;;;;5054586;28;20044;-60
2022/03/06 11:18:25;;;;;;;5.22;2.28;;;6.20;98.20;;;;;;5050661;28;20060;-60
2022/03/06 11:20:52;;;;;;;4.63;2.22;;;6.20;98.50;;;;;;5024377;28;20046;-60
2022/03/06 11:23:50;;;;;;;5.18;2.17;;;6.30;98.00;;;;;;5033402;28;20081;-60
2022/03/06 11:26:15;;;;;;;4.68;2.53;;;6.30;98.40;;;;;;5034663;28;20148;-60
2022/03/06 11:29:11;;;;;;;4.43;2.10;;;6.20;99.30;;;;;;5039648;28;20481;-60
2022/03/06 11:31:47;;;;;;;4.35;2.25;;;6.30;98.30;;;;;;5054217;28;20412;-60
2022/03/06 11:34:28;;;;;;;4.18;2.00;;;6.50;98.00;;;;;;5054381;28;20041;-60
2022/03/06 11:36:54;;;;;;;5.38;2.10;;;6.60;97.20;;;;;;5054469;28;20112;-60
2022/03/06 11:39:29;;;;;;;4.78;2.15;;;6.60;97.30;;;;;;5042295;28;20049;-60
2022/03/06 11:41:59;;;;;;;5.70;2.13;;;6.50;97.50;;;;;;5034073;28;20038;-60
2022/03/06 11:44:38;;;;;;;5.15;2.17;;;6.60;97.80;;;;;;5034237;28;20084;-60
2022/03/06 11:47:13;;;;;;;3.65;1.92;;;6.70;96.10;;;;;;5033859;28;20044;-59
2022/03/06 11:49:40;;;;;;;3.88;2.30;;;6.60;96.30;;;;;;5047571;28;20313;-59
2022/03/06 11:52:27;;;;;;;5.40;2.28;;;6.50;96.30;;;;;;5036212;28;20128;-59
2022/03/06 11:54:53;;;;;;;5.28;2.47;;;6.60;95.90;;;;;;5053704;28;20060;-59
2022/03/06 11:57:50;;;;;;;5.00;2.10;;;6.60;95.80;;;;;;5053891;28;20045;-60
2022/03/06 12:00:29;;;;;;;5.05;2.00;;;6.60;96.40;;;;;;5014980;28;20053;-59
2022/03/06 12:03:00;;;;;;;6.97;2.65;;;6.60;96.80;;;;;;5020116;28;20352;-59
2022/03/06 12:05:48;;;;;;;6.03;2.67;;;6.70;96.90;;;;;;5014037;28;20080;-59
2022/03/06 12:08:16;;;;;;;5.38;2.78;;;6.70;97.10;;;;;;5018402;28;20046;-59
2022/03/06 12:10:46;;;;;;;5.00;2.50;;;6.60;98.10;;;;;;5053409;28;20041;-59
2022/03/06 12:13:22;;;;;;;4.60;2.35;;;6.60;98.00;;;;;;5053822;28;20040;-61
2022/03/06 12:16:01;;;;;;;5.75;2.60;;;6.60;98.00;;;;;;5053799;28;20037;-60
2022/03/06 12:18:27;;;;;;;3.83;1.90;;;6.80;97.70;;;;;;5049908;28;20037;-59
2022/03/06 12:20:52;;;;;;;7.20;2.65;;;6.80;97.10;;;;;;5033551;28;20362;-60
2022/03/06 12:23:24;;;;;;;5.43;2.60;;;6.80;97.30;;;;;;5033805;28;20516;-60
2022/03/06 12:25:58;;;;;;;4.03;2.42;;;6.90;97.40;;;;;;5033690;28;20046;-59
2022/03/06 12:28:26;;;;;;;5.40;2.58;;;7.00;97.10;;;;;;5036305;28;20378;-59
2022/03/06 12:30:54;;;;;;;5.32;2.63;;;7.00;97.60;;;;;;5036062;28;20037;-59
2022/03/06 12:33:32;;;;;;;3.80;1.98;;;6.90;97.90;;;;;;5034908;28;20037;-60
2022/03/06 12:36:23;;;;;;;8.55;3.05;;;7.00;97.50;;;;;;5033751;28;20049;-59
2022/03/06 12:38:58;;;;;;;5.63;2.25;;;6.90;98.00;;;;;;5024223;28;20096;-60
2022/03/06 12:41:25;;;;;;;5.65;2.70;;;7.00;97.70;;;;;;5016514;28;20048;-59
2022/03/06 12:44:01;;;;;;;5.38;2.70;;;7.00;98.10;;;;;;5029836;28;20077;-60
2022/03/06 12:46:28;;;;;;;6.22;2.72;;;7.00;98.20;;;;;;5020190;28;20041;-60
2022/03/06 12:48:54;;;;;;;6.40;2.72;;;7.10;97.90;;;;;;5044452;28;20116;-60